Time;durP1;ratioP1;P1;durP2;ratioP2;P2;SDS_P1;SDS_P2;PMS_P1;PMS_P2;Temp;Humidity;BMP_temperature;BMP_pressure;BME280_temperature;BME280_humidity;BME280_pressure;Samples;Min_cycle;Max_cycle;Signal;HPM_P1;HPM_P2
2022/03/11 00:00:32;;;;;;;10.33;7.40;;;6.90;30.00;;;;;;5116844;28;20307;-43
2022/03/11 00:02:57;;;;;;;11.30;8.83;;;6.90;30.00;;;;;;5117231;28;20176;-43
2022/03/11 00:05:25;;;;;;;13.90;9.93;;;6.80;30.00;;;;;;5115884;28;20176;-43
2022/03/11 00:07:51;;;;;;;11.60;10.40;;;6.80;30.20;;;;;;5118108;28;20434;-43
2022/03/11 00:10:16;;;;;;;14.30;11.80;;;6.80;30.40;;;;;;5117343;28;20433;-44
2022/03/11 00:12:42;;;;;;;11.90;10.10;;;6.70;30.50;;;;;;5118198;28;20175;-43
2022/03/11 00:15:08;;;;;;;12.50;9.53;;;6.70;30.60;;;;;;5100650;28;20180;-44
2022/03/11 00:17:34;;;;;;;13.47;9.83;;;6.70;30.70;;;;;;5116872;28;20486;-43
2022/03/11 00:20:00;;;;;;;11.10;9.53;;;6.60;30.70;;;;;;5118416;28;20508;-43
2022/03/11 00:22:26;;;;;;;13.23;10.13;;;6.60;30.80;;;;;;5117037;28;20462;-44
2022/03/11 00:24:51;;;;;;;12.77;9.73;;;6.50;30.80;;;;;;5117627;28;20434;-44
2022/03/11 00:27:17;;;;;;;10.30;8.80;;;6.50;31.40;;;;;;5118552;28;20179;-43
2022/03/11 00:29:44;;;;;;;11.43;9.23;;;6.40;31.00;;;;;;5117331;28;20212;-44
2022/03/11 00:32:09;;;;;;;10.93;9.80;;;6.30;31.10;;;;;;5117095;28;20454;-43
2022/03/11 00:34:35;;;;;;;10.50;9.27;;;6.30;31.20;;;;;;5118390;28;20240;-43
2022/03/11 00:37:01;;;;;;;12.87;8.87;;;6.20;31.30;;;;;;5117396;28;20187;-43
2022/03/11 00:39:27;;;;;;;9.80;8.73;;;6.20;31.40;;;;;;5118846;28;20268;-44
2022/03/11 00:41:53;;;;;;;10.93;8.40;;;6.20;31.50;;;;;;5116273;28;20425;-44
2022/03/11 00:44:20;;;;;;;11.20;8.83;;;6.20;31.60;;;;;;5117446;28;20406;-43
2022/03/11 00:46:46;;;;;;;12.20;8.77;;;6.20;31.80;;;;;;5117856;28;20198;-43
2022/03/11 00:49:11;;;;;;;10.17;8.43;;;6.10;31.90;;;;;;5116468;28;20430;-43
2022/03/11 00:51:37;;;;;;;10.70;8.27;;;6.10;32.00;;;;;;5118135;28;20173;-43
2022/03/11 00:54:03;;;;;;;9.67;7.97;;;6.10;32.10;;;;;;5115710;28;20239;-43
2022/03/11 00:56:30;;;;;;;10.17;8.60;;;6.00;32.20;;;;;;5118464;28;20184;-43
2022/03/11 00:58:56;;;;;;;10.57;9.20;;;5.90;32.30;;;;;;5118070;28;20187;-44
2022/03/11 01:01:22;;;;;;;9.13;7.90;;;5.90;32.50;;;;;;5118324;28;20410;-43
2022/03/11 01:03:48;;;;;;;9.80;8.33;;;5.80;32.50;;;;;;5116187;28;20415;-43
2022/03/11 01:06:14;;;;;;;9.07;7.13;;;5.80;32.60;;;;;;5118529;28;20429;-43
2022/03/11 01:08:39;;;;;;;9.27;7.97;;;5.70;32.60;;;;;;5118488;28;20176;-43
2022/03/11 01:11:08;;;;;;;11.23;7.90;;;5.70;32.80;;;;;;5117771;28;20188;-43
2022/03/11 01:13:34;;;;;;;8.23;7.03;;;5.70;32.90;;;;;;5118177;28;20570;-43
2022/03/11 01:16:00;;;;;;;8.17;7.27;;;5.70;33.10;;;;;;5116298;28;20440;-43
2022/03/11 01:18:26;;;;;;;8.90;7.70;;;5.60;33.10;;;;;;5118328;28;20417;-43
2022/03/11 01:20:52;;;;;;;8.57;7.27;;;5.60;33.30;;;;;;5116613;28;20259;-43
2022/03/11 01:23:18;;;;;;;8.73;7.50;;;5.50;33.40;;;;;;5118424;28;20450;-43
2022/03/11 01:25:43;;;;;;;9.07;8.03;;;5.50;33.50;;;;;;5099476;28;20188;-43
2022/03/11 01:28:09;;;;;;;10.53;7.40;;;5.40;33.50;;;;;;5118137;28;20274;-45
2022/03/11 01:30:35;;;;;;;8.13;7.33;;;5.40;33.60;;;;;;5117125;28;20263;-43
2022/03/11 01:33:00;;;;;;;7.60;6.70;;;5.40;33.70;;;;;;5117988;28;20172;-43
2022/03/11 01:35:26;;;;;;;8.63;6.87;;;5.30;33.80;;;;;;5116692;28;20180;-43
2022/03/11 01:37:51;;;;;;;8.33;7.53;;;5.40;34.00;;;;;;5117658;28;20204;-43
2022/03/11 01:40:17;;;;;;;7.60;6.40;;;5.30;34.00;;;;;;5118062;28;20298;-44
2022/03/11 01:42:43;;;;;;;10.97;9.57;;;5.20;34.20;;;;;;5117110;28;20252;-44
2022/03/11 01:45:09;;;;;;;14.00;8.27;;;5.30;34.40;;;;;;5117961;28;20898;-44
2022/03/11 01:47:34;;;;;;;9.37;8.37;;;5.20;34.40;;;;;;5116626;28;20248;-43
2022/03/11 01:50:00;;;;;;;9.03;7.87;;;5.10;34.60;;;;;;5117759;28;20180;-44
2022/03/11 01:52:26;;;;;;;9.77;7.73;;;5.20;34.80;;;;;;5116491;28;20184;-44
2022/03/11 01:54:54;;;;;;;10.90;8.73;;;5.10;34.80;;;;;;5118067;28;20253;-44
2022/03/11 01:57:20;;;;;;;10.77;8.10;;;5.00;34.90;;;;;;5116116;28;20454;-43
2022/03/11 01:59:45;;;;;;;11.73;8.70;;;5.00;35.10;;;;;;5118021;28;20862;-42
2022/03/11 02:02:11;;;;;;;9.63;8.23;;;4.90;35.20;;;;;;5117226;28;20177;-44
2022/03/11 02:04:36;;;;;;;11.80;8.60;;;5.00;35.40;;;;;;5118073;28;20230;-44
2022/03/11 02:07:04;;;;;;;9.67;7.30;;;4.90;35.50;;;;;;5115971;28;20180;-44
2022/03/11 02:09:30;;;;;;;9.00;7.80;;;4.90;35.60;;;;;;5117413;28;20215;-44
2022/03/11 02:11:56;;;;;;;10.03;7.93;;;4.80;35.60;;;;;;5116564;28;20473;-44
2022/03/11 02:14:22;;;;;;;10.33;8.23;;;4.80;35.70;;;;;;5117926;28;20175;-44
2022/03/11 02:16:47;;;;;;;14.87;9.43;;;4.80;35.80;;;;;;5101800;28;20282;-44
2022/03/11 02:19:13;;;;;;;12.30;8.47;;;4.70;35.90;;;;;;5121219;28;20560;-43
2022/03/11 02:25:00;;;;;;;8.70;7.80;;;4.70;36.10;;;;;;5120922;28;20236;-44
2022/03/11 02:27:26;;;;;;;9.17;8.27;;;4.60;36.20;;;;;;5119628;28;20845;-44
2022/03/11 02:29:52;;;;;;;11.70;8.77;;;4.60;36.30;;;;;;5121247;28;20180;-44
2022/03/11 02:32:18;;;;;;;10.00;8.50;;;4.60;36.30;;;;;;5119406;28;20429;-44
2022/03/11 02:34:43;;;;;;;9.30;8.40;;;4.60;36.30;;;;;;5121382;28;20267;-44
2022/03/11 02:37:09;;;;;;;11.73;8.23;;;4.60;36.30;;;;;;5119379;28;20562;-45
2022/03/11 02:39:35;;;;;;;9.97;8.90;;;4.50;36.30;;;;;;5119678;28;20199;-44
2022/03/11 02:42:03;;;;;;;10.03;8.70;;;4.50;36.40;;;;;;5100420;28;20481;-45
2022/03/11 02:44:31;;;;;;;10.63;9.53;;;4.40;36.50;;;;;;5119697;28;20815;-44
2022/03/11 02:46:59;;;;;;;12.87;9.07;;;4.40;36.60;;;;;;5100431;28;20941;-43
2022/03/11 02:49:26;;;;;;;12.83;9.90;;;4.40;36.70;;;;;;5119561;28;20406;-45
2022/03/11 02:51:52;;;;;;;11.30;8.80;;;4.30;36.80;;;;;;5118227;28;20430;-44
2022/03/11 02:54:17;;;;;;;11.13;9.93;;;4.30;37.00;;;;;;5099003;28;20490;-43
2022/03/11 02:56:43;;;;;;;12.43;10.27;;;4.20;37.10;;;;;;5097708;28;20189;-44
2022/03/11 02:59:08;;;;;;;11.73;10.17;;;4.30;37.30;;;;;;5099864;28;20211;-45
2022/03/11 03:01:34;;;;;;;13.63;10.77;;;4.20;37.40;;;;;;5098303;28;20181;-45
2022/03/11 03:04:00;;;;;;;11.23;10.03;;;4.20;37.60;;;;;;5099298;28;20176;-44
2022/03/11 03:06:26;;;;;;;12.07;9.93;;;4.20;37.80;;;;;;5097941;28;20192;-42
2022/03/11 03:08:51;;;;;;;12.47;9.97;;;4.20;37.80;;;;;;5099548;28;20173;-43
2022/03/11 03:11:17;;;;;;;11.07;9.23;;;4.10;37.70;;;;;;5097417;28;20461;-44
2022/03/11 03:13:43;;;;;;;10.90;9.63;;;4.10;37.70;;;;;;5099106;28;20165;-44
2022/03/11 03:16:08;;;;;;;11.10;9.83;;;4.10;37.70;;;;;;5099160;28;20184;-45
2022/03/11 03:18:34;;;;;;;14.20;10.50;;;4.10;37.70;;;;;;5097745;28;20292;-44
2022/03/11 03:21:00;;;;;;;11.57;8.60;;;4.10;37.80;;;;;;5098410;28;20551;-44
2022/03/11 03:23:26;;;;;;;12.90;11.00;;;4.00;37.80;;;;;;5099213;28;20189;-44
2022/03/11 03:25:53;;;;;;;12.37;10.30;;;4.00;37.90;;;;;;5098401;28;20594;-44
2022/03/11 03:28:19;;;;;;;14.43;10.87;;;4.00;38.10;;;;;;5097111;28;20433;-44
2022/03/11 03:30:45;;;;;;;11.67;9.63;;;4.00;38.20;;;;;;5099590;28;20450;-44
2022/03/11 03:33:10;;;;;;;14.90;12.00;;;3.90;38.30;;;;;;5097493;28;20442;-44
2022/03/11 03:35:36;;;;;;;15.80;12.73;;;3.90;38.60;;;;;;5099750;28;20188;-44
2022/03/11 03:38:02;;;;;;;18.20;14.30;;;3.90;38.80;;;;;;5098362;28;20207;-44
2022/03/11 03:40:27;;;;;;;20.07;14.70;;;3.90;39.40;;;;;;5099340;28;20548;-44
2022/03/11 03:42:53;;;;;;;16.23;13.80;;;3.90;39.80;;;;;;5098700;28;20189;-44
2022/03/11 03:45:18;;;;;;;19.50;15.40;;;3.90;40.10;;;;;;5098323;28;20166;-44
2022/03/11 03:47:44;;;;;;;18.00;14.60;;;3.90;40.30;;;;;;5097677;28;20188;-44
2022/03/11 03:50:11;;;;;;;16.57;14.37;;;3.90;40.30;;;;;;5098294;28;20617;-43
2022/03/11 03:52:37;;;;;;;17.23;14.93;;;3.90;40.30;;;;;;5097656;28;20181;-44
2022/03/11 03:55:03;;;;;;;19.77;15.37;;;3.90;40.50;;;;;;5115336;28;20556;-44
2022/03/11 03:57:28;;;;;;;19.10;17.10;;;3.90;40.70;;;;;;5100571;28;20268;-45
2022/03/11 03:59:54;;;;;;;21.10;17.07;;;3.90;41.00;;;;;;5101261;28;20430;-44
2022/03/11 04:02:20;;;;;;;19.20;15.70;;;3.90;41.30;;;;;;5119246;28;20181;-44
2022/03/11 04:04:45;;;;;;;19.07;16.10;;;3.90;41.50;;;;;;5117615;28;20203;-44
2022/03/11 04:07:11;;;;;;;20.43;16.97;;;3.90;41.70;;;;;;5119475;28;20743;-44
2022/03/11 04:09:37;;;;;;;19.80;17.13;;;3.90;41.80;;;;;;5118606;28;20514;-44
2022/03/11 04:12:03;;;;;;;19.77;16.30;;;3.90;41.90;;;;;;5118884;28;20624;-44
2022/03/11 04:14:29;;;;;;;18.80;16.80;;;3.90;41.90;;;;;;5119251;28;20183;-44
2022/03/11 04:16:55;;;;;;;21.40;17.80;;;3.90;41.90;;;;;;5117409;28;20533;-42
2022/03/11 04:19:20;;;;;;;20.07;16.97;;;3.90;42.00;;;;;;5118338;28;20509;-44
2022/03/11 04:21:46;;;;;;;21.07;16.93;;;3.90;42.10;;;;;;5118526;28;20472;-44
2022/03/11 04:24:15;;;;;;;22.20;17.77;;;3.80;42.00;;;;;;5117378;28;20188;-45
2022/03/11 04:26:44;;;;;;;21.10;17.37;;;3.80;42.10;;;;;;5117529;28;20199;-44
2022/03/11 04:29:11;;;;;;;23.00;18.57;;;3.80;42.20;;;;;;5100612;28;20610;-43
2022/03/11 04:31:37;;;;;;;23.90;17.47;;;3.80;42.20;;;;;;5117315;28;20795;-44
2022/03/11 04:34:04;;;;;;;20.60;17.00;;;3.80;42.20;;;;;;5083869;28;20446;-44
2022/03/11 04:36:32;;;;;;;20.70;17.90;;;3.80;42.30;;;;;;5116835;28;20434;-44
2022/03/11 04:38:59;;;;;;;24.17;17.50;;;3.80;42.40;;;;;;5118338;28;20475;-44
2022/03/11 04:41:24;;;;;;;22.23;17.83;;;3.80;42.50;;;;;;5116544;28;20532;-44
2022/03/11 04:43:50;;;;;;;24.00;18.03;;;3.80;42.50;;;;;;5117049;28;20505;-43
2022/03/11 04:46:16;;;;;;;21.50;17.57;;;3.80;42.50;;;;;;5116456;28;20189;-44
2022/03/11 04:48:44;;;;;;;22.43;17.37;;;3.80;42.50;;;;;;5136066;27;20191;-44
2022/03/11 04:51:10;;;;;;;23.93;19.33;;;3.80;42.50;;;;;;5135875;27;20215;-44
2022/03/11 04:53:35;;;;;;;20.93;17.50;;;3.80;42.50;;;;;;5137438;27;20479;-44
2022/03/11 04:56:01;;;;;;;24.80;19.07;;;3.70;42.50;;;;;;5136821;27;20254;-44
2022/03/11 04:58:27;;;;;;;22.73;19.10;;;3.70;42.50;;;;;;5118914;27;20201;-44
2022/03/11 05:00:52;;;;;;;22.90;19.57;;;3.70;42.60;;;;;;5136936;27;20711;-44
2022/03/11 05:03:18;;;;;;;23.63;18.00;;;3.70;42.50;;;;;;5120639;27;20175;-47
2022/03/11 05:05:43;;;;;;;24.13;17.90;;;3.70;42.60;;;;;;5137785;27;20183;-46
2022/03/11 05:08:09;;;;;;;20.90;18.30;;;3.70;43.10;;;;;;5137144;27;20194;-47
2022/03/11 05:10:35;;;;;;;24.87;17.23;;;3.70;42.60;;;;;;5138787;28;20245;-46
2022/03/11 05:13:00;;;;;;;20.87;17.47;;;3.70;42.50;;;;;;5136039;28;20171;-46
2022/03/11 05:15:26;;;;;;;23.30;16.90;;;3.70;42.40;;;;;;5136400;28;20202;-46
2022/03/11 05:17:52;;;;;;;21.90;18.87;;;3.80;42.40;;;;;;5136659;28;20231;-46
2022/03/11 05:20:19;;;;;;;20.50;17.17;;;3.80;42.30;;;;;;5130664;28;20480;-47
2022/03/11 05:22:46;;;;;;;21.73;18.43;;;3.80;42.20;;;;;;5114249;28;20464;-46
2022/03/11 05:25:11;;;;;;;20.90;17.17;;;3.80;42.20;;;;;;5095854;28;20457;-46
2022/03/11 05:27:37;;;;;;;23.63;18.87;;;3.70;42.10;;;;;;5095693;28;20445;-46
2022/03/11 05:30:05;;;;;;;20.50;16.80;;;3.70;42.10;;;;;;5114750;28;20484;-47
2022/03/11 05:32:31;;;;;;;21.50;18.50;;;3.70;42.10;;;;;;5116684;28;20180;-47
2022/03/11 05:34:56;;;;;;;21.73;17.90;;;3.70;42.10;;;;;;5127709;28;20409;-47
2022/03/11 05:37:22;;;;;;;23.30;18.57;;;3.60;42.10;;;;;;5134363;28;20614;-47
2022/03/11 05:39:48;;;;;;;23.03;19.63;;;3.70;42.20;;;;;;5135168;28;20277;-47
2022/03/11 05:42:14;;;;;;;23.00;17.60;;;3.70;42.10;;;;;;5116183;28;20283;-47
2022/03/11 05:44:40;;;;;;;21.23;17.93;;;3.60;42.10;;;;;;5134406;28;20224;-47
2022/03/11 05:47:06;;;;;;;22.33;17.70;;;3.60;42.10;;;;;;5135361;28;20492;-47
2022/03/11 05:49:31;;;;;;;23.93;18.17;;;3.60;42.10;;;;;;5137563;27;20203;-47
2022/03/11 05:51:57;;;;;;;28.07;20.27;;;3.60;42.10;;;;;;5130746;27;20218;-47
2022/03/11 05:54:23;;;;;;;20.57;16.90;;;3.60;42.10;;;;;;5130782;27;20228;-47
2022/03/11 05:56:54;;;;;;;21.47;17.63;;;3.60;42.00;;;;;;5129066;27;20731;-46
2022/03/11 05:59:23;;;;;;;24.63;18.40;;;3.60;42.10;;;;;;5138765;27;20179;-47
2022/03/11 06:01:49;;;;;;;24.80;19.33;;;3.60;42.20;;;;;;5138977;27;20432;-47
2022/03/11 06:04:14;;;;;;;23.80;19.53;;;3.60;42.40;;;;;;5139848;27;20857;-47
2022/03/11 06:06:40;;;;;;;24.83;19.07;;;3.60;42.40;;;;;;5139359;27;20211;-46
2022/03/11 06:09:08;;;;;;;26.70;18.90;;;3.60;42.50;;;;;;5141087;27;20266;-47
2022/03/11 06:11:37;;;;;;;21.20;18.60;;;3.70;42.50;;;;;;5140139;27;20191;-47
2022/03/11 06:14:03;;;;;;;23.00;18.80;;;3.70;42.60;;;;;;5138287;27;20413;-46
2022/03/11 06:16:29;;;;;;;25.20;18.97;;;3.70;42.50;;;;;;5135128;27;20425;-46
2022/03/11 06:18:55;;;;;;;24.27;18.83;;;3.70;42.50;;;;;;5139591;27;20411;-46
2022/03/11 06:21:21;;;;;;;23.70;20.30;;;3.70;42.30;;;;;;5138974;27;20817;-47
2022/03/11 06:23:46;;;;;;;23.53;17.40;;;3.80;42.30;;;;;;5139697;27;20409;-48
2022/03/11 06:26:12;;;;;;;23.20;17.33;;;3.90;42.30;;;;;;5119178;27;20180;-47
2022/03/11 06:28:38;;;;;;;20.60;17.83;;;4.00;42.20;;;;;;5138635;27;20167;-47
2022/03/11 06:31:04;;;;;;;19.00;16.33;;;4.10;42.10;;;;;;5137594;27;20211;-47
2022/03/11 06:33:31;;;;;;;20.47;17.63;;;4.30;42.00;;;;;;5138150;27;20182;-48
2022/03/11 06:35:57;;;;;;;20.07;17.47;;;4.40;41.70;;;;;;5137716;27;20469;-47
2022/03/11 06:38:23;;;;;;;22.07;17.70;;;4.60;41.50;;;;;;5139648;27;20413;-47
2022/03/11 06:40:49;;;;;;;21.63;18.20;;;4.70;41.30;;;;;;5136694;27;20511;-47
2022/03/11 06:43:16;;;;;;;22.43;17.37;;;4.80;41.20;;;;;;5138948;27;20275;-47
2022/03/11 06:45:44;;;;;;;20.67;17.07;;;5.00;41.10;;;;;;5137983;27;20962;-47
2022/03/11 06:48:10;;;;;;;23.70;19.17;;;5.10;41.00;;;;;;5118056;27;20923;-47
2022/03/11 06:50:35;;;;;;;26.57;18.17;;;5.30;40.90;;;;;;5135713;27;20567;-47
2022/03/11 06:53:01;;;;;;;22.53;18.80;;;5.40;40.80;;;;;;5133146;27;20326;-47
2022/03/11 06:55:26;;;;;;;24.67;19.83;;;5.60;40.60;;;;;;5135851;27;20231;-47
2022/03/11 06:57:53;;;;;;;24.00;19.33;;;5.80;40.30;;;;;;5133308;27;20210;-47
2022/03/11 07:00:18;;;;;;;24.97;20.13;;;6.00;40.10;;;;;;5134665;27;20509;-47
2022/03/11 07:02:44;;;;;;;22.87;19.33;;;6.10;39.80;;;;;;5134572;27;20603;-47
2022/03/11 07:05:11;;;;;;;22.70;19.20;;;6.30;39.50;;;;;;5136507;27;20215;-47
2022/03/11 07:07:37;;;;;;;22.97;18.80;;;6.50;39.30;;;;;;5137875;27;20501;-47
2022/03/11 07:10:10;;;;;;;23.17;19.23;;;6.70;38.80;;;;;;5138785;27;20615;-47
2022/03/11 07:12:35;;;;;;;20.73;17.80;;;6.90;38.50;;;;;;5118602;27;20452;-47
2022/03/11 07:15:02;;;;;;;22.07;19.20;;;7.20;38.20;;;;;;5137948;27;20409;-47
2022/03/11 07:17:28;;;;;;;20.83;18.60;;;7.40;37.60;;;;;;5137817;27;20226;-47
2022/03/11 07:19:54;;;;;;;25.27;19.17;;;7.50;37.10;;;;;;5140200;27;20481;-47
2022/03/11 07:22:21;;;;;;;24.87;19.03;;;7.70;36.80;;;;;;5137420;27;20421;-47
2022/03/11 07:24:47;;;;;;;23.50;18.40;;;7.90;36.50;;;;;;5137813;27;20405;-48
2022/03/11 07:27:13;;;;;;;25.83;20.70;;;8.10;36.20;;;;;;5135081;27;20547;-47
2022/03/11 07:29:40;;;;;;;21.27;19.07;;;8.30;35.90;;;;;;5138125;27;20567;-47
2022/03/11 07:32:06;;;;;;;21.40;17.77;;;8.60;35.50;;;;;;5119367;27;20184;-47
2022/03/11 07:34:32;;;;;;;22.23;19.70;;;8.70;34.90;;;;;;5139857;27;20413;-47
2022/03/11 07:36:57;;;;;;;20.40;16.77;;;8.90;34.50;;;;;;5137647;27;20877;-47
2022/03/11 07:39:24;;;;;;;21.30;17.73;;;9.00;34.10;;;;;;5138493;27;20173;-47
2022/03/11 07:41:49;;;;;;;22.77;20.27;;;9.00;33.90;;;;;;5119241;27;20350;-47
2022/03/11 07:44:15;;;;;;;21.07;18.43;;;9.20;33.80;;;;;;5138623;27;20417;-47
2022/03/11 07:46:43;;;;;;;19.80;17.77;;;9.40;33.70;;;;;;5137133;27;20187;-47
2022/03/11 07:49:08;;;;;;;21.73;18.60;;;9.50;33.50;;;;;;5137115;27;20652;-47
2022/03/11 07:51:34;;;;;;;19.50;17.50;;;9.80;33.40;;;;;;5134034;27;20512;-46
2022/03/11 07:54:00;;;;;;;20.20;17.90;;;10.00;32.30;;;;;;5136083;27;20457;-46
2022/03/11 07:56:26;;;;;;;20.40;17.40;;;10.30;32.00;;;;;;5134576;27;20708;-46
2022/03/11 07:58:54;;;;;;;20.43;18.30;;;10.50;31.50;;;;;;5137329;27;20182;-46
2022/03/11 08:01:21;;;;;;;20.20;18.00;;;10.80;31.30;;;;;;5149172;27;20788;-46
2022/03/11 08:03:47;;;;;;;23.33;20.23;;;11.00;31.10;;;;;;5151011;27;20421;-46
2022/03/11 08:06:13;;;;;;;23.63;21.10;;;11.30;30.90;;;;;;5122355;27;20755;-46
2022/03/11 08:08:39;;;;;;;22.63;20.23;;;11.50;30.60;;;;;;5135150;27;20415;-47
2022/03/11 08:11:06;;;;;;;20.63;18.43;;;11.90;30.50;;;;;;5115748;27;20731;-47
2022/03/11 08:13:33;;;;;;;24.00;20.40;;;12.10;30.20;;;;;;5137223;27;20254;-47
2022/03/11 08:16:00;;;;;;;22.00;19.57;;;12.40;30.00;;;;;;5135555;27;20825;-47
2022/03/11 08:18:25;;;;;;;21.73;19.43;;;12.70;29.90;;;;;;5117855;27;20765;-47
2022/03/11 08:20:51;;;;;;;20.07;18.07;;;13.00;30.10;;;;;;5132457;27;20417;-47
2022/03/11 08:23:17;;;;;;;20.63;18.63;;;13.20;29.50;;;;;;5135943;27;20171;-47
2022/03/11 08:25:46;;;;;;;19.60;17.50;;;13.50;29.30;;;;;;5116468;27;20439;-47
2022/03/11 08:28:13;;;;;;;21.30;19.00;;;13.80;29.10;;;;;;5114061;27;20775;-47
2022/03/11 08:30:40;;;;;;;20.00;17.30;;;14.20;29.00;;;;;;5134718;27;20808;-47
2022/03/11 08:33:06;;;;;;;19.93;17.80;;;14.50;28.90;;;;;;5114465;27;20413;-46
2022/03/11 08:35:32;;;;;;;19.20;17.30;;;14.90;28.70;;;;;;5133828;27;20413;-46
2022/03/11 08:37:58;;;;;;;19.17;17.27;;;15.20;28.40;;;;;;5134172;27;20418;-47
2022/03/11 08:40:26;;;;;;;19.43;17.47;;;15.60;28.20;;;;;;5136018;27;20502;-47
2022/03/11 08:42:52;;;;;;;19.17;17.23;;;16.00;28.10;;;;;;5134356;27;20423;-47
2022/03/11 08:45:21;;;;;;;19.40;17.43;;;16.50;27.90;;;;;;5115793;27;20420;-47
2022/03/11 08:47:47;;;;;;;20.10;17.97;;;16.90;27.70;;;;;;5132783;27;20787;-47
2022/03/11 08:50:13;;;;;;;18.20;16.30;;;17.20;27.40;;;;;;5116116;27;20879;-47
2022/03/11 08:52:40;;;;;;;17.73;15.97;;;17.50;27.00;;;;;;5132215;27;20433;-47
2022/03/11 08:55:06;;;;;;;18.53;16.77;;;17.80;26.80;;;;;;5134752;27;20473;-47
2022/03/11 08:57:31;;;;;;;20.60;18.70;;;18.20;26.50;;;;;;5134428;27;20441;-47
2022/03/11 08:59:57;;;;;;;19.07;17.23;;;18.50;26.30;;;;;;5136046;27;20413;-47
2022/03/11 09:02:23;;;;;;;19.37;17.47;;;18.80;26.10;;;;;;5134572;27;20191;-47
2022/03/11 09:04:49;;;;;;;18.77;16.77;;;19.10;25.90;;;;;;5135247;27;20171;-47
2022/03/11 09:07:15;;;;;;;17.33;15.70;;;19.40;25.80;;;;;;5133072;27;20421;-47
2022/03/11 09:09:41;;;;;;;17.90;16.13;;;19.90;25.70;;;;;;5134996;27;20526;-47
2022/03/11 09:12:07;;;;;;;17.87;16.17;;;20.20;25.40;;;;;;5118306;28;20208;-46
2022/03/11 09:14:33;;;;;;;16.83;15.33;;;20.50;25.20;;;;;;5136890;28;20208;-47
2022/03/11 09:17:00;;;;;;;18.03;16.43;;;20.80;25.00;;;;;;5137673;28;20418;-46
2022/03/11 09:19:25;;;;;;;16.03;14.63;;;21.20;24.90;;;;;;5133987;28;20531;-47
2022/03/11 09:21:51;;;;;;;16.67;15.07;;;21.50;24.60;;;;;;5135927;28;20515;-47
2022/03/11 09:24:17;;;;;;;16.80;15.30;;;21.90;24.60;;;;;;5135861;27;20587;-47
2022/03/11 09:26:45;;;;;;;17.73;15.27;;;22.30;24.30;;;;;;5138041;27;20230;-47
2022/03/11 09:29:11;;;;;;;15.87;14.50;;;22.60;24.20;;;;;;5138709;27;20190;-47
2022/03/11 09:31:37;;;;;;;16.17;14.77;;;23.00;24.10;;;;;;5139775;27;20424;-47
2022/03/11 09:34:03;;;;;;;17.83;16.10;;;23.30;24.00;;;;;;5138286;27;20440;-47
2022/03/11 09:36:28;;;;;;;16.60;15.10;;;23.50;23.60;;;;;;5121565;27;20188;-47
2022/03/11 09:38:54;;;;;;;16.87;15.37;;;23.70;23.60;;;;;;5137988;27;20619;-47
2022/03/11 09:41:21;;;;;;;16.50;14.80;;;24.00;23.50;;;;;;5138658;27;20270;-47
2022/03/11 09:43:47;;;;;;;16.77;15.30;;;24.40;23.30;;;;;;5120091;27;20211;-47
2022/03/11 09:46:14;;;;;;;17.77;16.23;;;24.70;23.20;;;;;;5140266;27;20440;-47
2022/03/11 09:48:41;;;;;;;16.70;15.10;;;25.00;23.20;;;;;;5138738;27;20177;-47
2022/03/11 09:51:10;;;;;;;17.13;15.63;;;25.40;23.10;;;;;;5138088;27;20528;-47
2022/03/11 09:53:35;;;;;;;16.20;14.70;;;25.70;22.90;;;;;;5138904;27;20568;-47
2022/03/11 09:56:01;;;;;;;18.73;17.13;;;26.20;22.90;;;;;;5121818;27;20777;-47
2022/03/11 09:58:27;;;;;;;18.70;17.10;;;26.60;22.80;;;;;;5139836;27;20183;-47
2022/03/11 10:00:53;;;;;;;17.20;15.70;;;27.00;22.30;;;;;;5139329;27;20273;-45
2022/03/11 10:03:18;;;;;;;16.43;15.10;;;27.20;22.50;;;;;;5137609;27;20176;-47
2022/03/11 10:05:52;;;;;;;17.53;15.83;;;27.50;21.90;;;;;;5139725;27;20175;-47
2022/03/11 10:08:31;;;;;;;17.17;15.60;;;27.90;21.80;;;;;;5135479;27;20220;-47
2022/03/11 10:11:26;;;;;;;15.67;14.27;;;28.20;21.60;;;;;;5137023;27;20525;-47
2022/03/11 10:14:04;;;;;;;16.03;14.73;;;28.50;21.50;;;;;;5120715;27;20496;-46
2022/03/11 10:16:30;;;;;;;15.47;14.20;;;28.80;21.30;;;;;;5140201;27;20669;-47
2022/03/11 10:19:07;;;;;;;13.70;12.50;;;29.20;21.20;;;;;;5138779;27;20827;-48
2022/03/11 10:21:45;;;;;;;11.83;9.67;;;29.30;22.30;;;;;;5140259;27;20813;-48
2022/03/11 10:24:15;;;;;;;12.13;11.03;;;29.60;23.60;;;;;;5139222;27;20432;-48
2022/03/11 10:26:46;;;;;;;10.90;9.60;;;29.70;23.30;;;;;;5135485;27;20849;-48
2022/03/11 10:29:24;;;;;;;10.33;9.00;;;29.60;23.40;;;;;;5136608;27;20409;-40
2022/03/11 10:31:51;;;;;;;12.10;11.10;;;30.00;23.50;;;;;;5135850;27;20690;-42
2022/03/11 10:34:27;;;;;;;12.20;11.20;;;30.10;23.00;;;;;;5135311;27;20411;-46
2022/03/11 10:37:04;;;;;;;12.70;11.67;;;30.20;23.50;;;;;;5136259;27;20820;-41
2022/03/11 10:39:47;;;;;;;13.33;12.23;;;30.40;22.40;;;;;;5133458;27;20905;-42
2022/03/11 10:42:27;;;;;;;12.00;11.00;;;30.10;22.30;;;;;;5106999;28;20396;-43
2022/03/11 10:45:23;;;;;;;12.97;11.87;;;30.10;22.60;;;;;;5118271;28;20424;-44
2022/03/11 10:47:53;;;;;;;13.23;11.97;;;30.30;22.40;;;;;;5078078;28;20488;-43
2022/03/11 10:50:19;;;;;;;12.00;10.90;;;30.50;22.40;;;;;;5118509;28;20845;-42
2022/03/11 10:52:49;;;;;;;12.63;11.43;;;30.80;22.70;;;;;;5118330;28;20523;-40
2022/03/11 10:55:26;;;;;;;11.60;10.70;;;30.90;22.60;;;;;;5118244;28;20300;-42
2022/03/11 10:58:00;;;;;;;12.67;11.47;;;31.20;23.10;;;;;;5099796;28;20486;-41
2022/03/11 11:00:29;;;;;;;13.00;11.77;;;31.40;22.50;;;;;;5118855;28;20599;-42
2022/03/11 11:02:57;;;;;;;13.20;12.10;;;31.40;21.90;;;;;;5117776;28;20406;-43
2022/03/11 11:05:23;;;;;;;12.50;11.40;;;31.20;22.30;;;;;;5099888;28;20413;-43
2022/03/11 11:07:49;;;;;;;12.27;11.20;;;31.60;22.30;;;;;;5116774;28;20421;-41
2022/03/11 11:10:18;;;;;;;10.47;9.57;;;31.80;22.00;;;;;;5118153;28;20417;-41
2022/03/11 11:12:45;;;;;;;10.83;9.83;;;32.00;22.50;;;;;;5118903;28;20416;-42
2022/03/11 11:15:12;;;;;;;10.70;9.80;;;32.60;22.80;;;;;;5098075;28;20431;-40
2022/03/11 11:17:42;;;;;;;10.50;9.60;;;32.90;22.40;;;;;;5117573;28;20459;-46
2022/03/11 11:20:38;;;;;;;11.17;10.17;;;33.20;22.90;;;;;;5111177;28;20870;-42
2022/03/11 11:23:06;;;;;;;11.50;10.40;;;33.70;22.30;;;;;;5096876;28;20686;-44
2022/03/11 11:25:33;;;;;;;11.10;9.77;;;34.00;22.50;;;;;;5097460;28;20402;-41
2022/03/11 11:28:16;;;;;;;11.07;9.90;;;34.40;22.20;;;;;;5096361;28;20392;-41
2022/03/11 11:30:43;;;;;;;13.17;10.40;;;34.70;22.00;;;;;;5095085;28;20384;-42
2022/03/11 11:33:09;;;;;;;11.83;10.73;;;34.90;21.70;;;;;;5114146;28;20541;-45
2022/03/11 11:35:43;;;;;;;16.13;9.30;;;34.90;21.10;;;;;;5096334;28;20696;-43
2022/03/11 11:38:27;;;;;;;10.90;9.33;;;34.90;21.90;;;;;;5114592;28;20527;-42
2022/03/11 11:40:53;;;;;;;13.13;9.27;;;35.10;22.00;;;;;;5116788;28;20457;-43
2022/03/11 11:43:26;;;;;;;12.40;11.10;;;35.50;22.10;;;;;;5118932;28;20392;-42
2022/03/11 11:45:52;;;;;;;9.67;8.57;;;35.70;21.40;;;;;;5114588;28;20422;-45
2022/03/11 11:48:33;;;;;;;12.37;8.40;;;35.70;21.60;;;;;;5115396;28;20431;-43
2022/03/11 11:51:04;;;;;;;9.67;8.90;;;36.10;22.00;;;;;;5096812;28;20184;-41
2022/03/11 11:53:33;;;;;;;11.43;10.33;;;36.40;21.40;;;;;;5117492;28;20447;-41
2022/03/11 11:55:59;;;;;;;10.83;9.23;;;36.40;20.90;;;;;;5115863;28;20535;-41
2022/03/11 11:58:25;;;;;;;11.43;10.30;;;36.40;21.50;;;;;;5118271;28;20411;-44
2022/03/11 12:00:55;;;;;;;11.13;10.23;;;36.60;21.20;;;;;;5116144;28;20495;-44
2022/03/11 12:03:41;;;;;;;9.80;8.80;;;36.40;20.80;;;;;;5114954;28;20175;-43
2022/03/11 12:06:07;;;;;;;10.40;9.40;;;36.50;21.20;;;;;;5114848;28;20408;-45
2022/03/11 12:08:33;;;;;;;9.70;8.90;;;36.50;21.10;;;;;;5098348;28;20421;-43
2022/03/11 12:10:59;;;;;;;11.43;10.47;;;36.90;21.10;;;;;;5115690;28;20186;-43
2022/03/11 12:13:35;;;;;;;9.77;8.77;;;37.00;20.60;;;;;;5098381;28;20693;-44
2022/03/11 12:16:03;;;;;;;10.93;10.13;;;36.90;20.40;;;;;;5112685;28;20429;-43
2022/03/11 12:18:37;;;;;;;10.83;10.03;;;36.70;20.80;;;;;;5113858;28;20870;-43
2022/03/11 12:21:04;;;;;;;10.30;9.50;;;36.80;20.90;;;;;;5112143;28;20461;-41
2022/03/11 12:23:32;;;;;;;9.80;9.00;;;36.80;20.70;;;;;;5112366;28;20399;-41
2022/03/11 12:26:07;;;;;;;10.10;8.80;;;36.90;20.90;;;;;;5109716;28;20426;-41
2022/03/11 12:28:35;;;;;;;11.70;10.80;;;37.10;20.90;;;;;;5113808;28;20577;-40
2022/03/11 12:31:19;;;;;;;10.83;9.83;;;37.30;20.30;;;;;;5114138;28;20419;-40
2022/03/11 12:33:50;;;;;;;9.60;8.77;;;37.20;20.70;;;;;;5111327;28;20568;-41
2022/03/11 12:36:21;;;;;;;8.67;7.87;;;37.30;21.20;;;;;;5095935;28;20414;-41
2022/03/11 12:38:47;;;;;;;10.53;9.53;;;37.50;21.00;;;;;;5092796;28;20486;-42
2022/03/11 12:41:14;;;;;;;13.23;12.03;;;37.70;20.70;;;;;;5094457;28;20486;-42